Latest Weather Observations for Leigh Creek

IDS60801

Issued at 5:02 am CST Sunday 26 April 2015 (issued every 30 minutes, with the page automatically refreshed every 10 minutes)

About weather observations | Map of weather stations | Latest weather observations for SA | Other Formats
Station Details ID: 017110 Name: LEIGH CREEK AIRPORT Lat: -30.60 Lon: 138.42 Height: 258.8 m
Data from the previous 72 hours. | See also: Recent months at Leigh Creek
Date/Time
CST
Temp
°C
App
Temp
°C
Dew
Point
Rel
Hum
%
Delta-T
°C
Wind Press
QNH
hPa
Press
MSL
hPa
Rain
since 9 am
mm
Dir
 
Spd
km/h
Gust
km/h
Spd
kts
Gust
kts
26/05:00am 10.0 6.2 9.2 95 0.4 SSW 19 22 10 12 1022.3 1021.5 0.0
26/04:30am 10.2 7.2 9.1 93 0.6 SSW 15 20 8 11 1022.0 1021.2 0.0
26/04:00am 10.4 7.8 9.3 93 0.6 S 13 20 7 11 1021.8 1021.0 0.0
26/03:30am 10.2 6.3 8.8 91 0.7 SSW 19 24 10 13 1021.7 1020.9 0.0
26/03:00am 10.2 6.5 8.1 87 1.0 SSW 17 20 9 11 1021.7 1020.9 0.0
26/02:30am 10.2 6.5 7.8 85 1.2 SSW 17 20 9 11 1021.6 1020.8 0.0
26/02:00am 10.3 6.4 7.0 80 1.6 SSW 17 22 9 12 1021.5 1020.7 0.0
26/01:30am 10.6 6.2 6.4 75 2.0 SSW 19 24 10 13 1021.3 1020.5 0.0
26/01:00am 11.3 7.7 6.8 74 2.2 S 15 20 8 11 1021.3 1020.5 0.0
26/12:30am 11.9 9.1 7.0 72 2.4 S 11 20 6 11 1021.3 1020.5 0.0
26/12:00am 12.0 7.7 6.9 71 2.5 SSW 19 26 10 14 1021.2 1020.4 0.0
 
Date/Time
CST
Temp
°C
App
Temp
°C
Dew
Point
Rel
Hum
%
Delta-T
°C
Wind Press
QNH
hPa
Press
MSL
hPa
Rain
since 9 am
mm
Dir
 
Spd
km/h
Gust
km/h
Spd
kts
Gust
kts
25/11:30pm 12.1 7.5 6.4 68 2.7 SSW 20 26 11 14 1021.1 1020.3 0.0
25/11:00pm 12.2 8.1 6.0 66 3.0 S 17 20 9 11 1021.2 1020.4 0.0
25/10:30pm 12.2 8.8 5.8 65 3.0 S 13 17 7 9 1021.2 1020.4 0.0
25/10:00pm 12.2 8.4 5.8 65 3.0 SSW 15 17 8 9 1021.1 1020.3 0.0
25/09:30pm 12.4 9.4 5.8 64 3.1 SSW 11 13 6 7 1020.8 1020.0 0.0
25/09:00pm 13.5 10.1 5.9 60 3.6 S 13 17 7 9 1020.5 1019.8 0.0
25/08:30pm 14.3 9.8 5.9 57 4.0 S 19 24 10 13 1019.9 1019.2 0.0
25/08:00pm 14.5 10.7 5.8 56 4.2 S 15 22 8 12 1019.6 1018.9 0.0
25/07:30pm 14.8 10.3 5.9 55 4.3 SSW 19 26 10 14 1019.1 1018.3 0.0
25/07:00pm 15.1 10.5 5.6 53 4.6 SSW 19 22 10 12 1019.0 1018.2 0.0
25/06:30pm 15.7 10.8 5.3 50 5.0 SSW 20 30 11 16 1018.5 1017.7 0.0
25/06:00pm 16.2 9.7 4.9 47 5.4 SSW 28 37 15 20 1018.0 1017.2 0.0
25/05:30pm 16.8 9.6 5.1 46 5.7 SSW 32 41 17 22 1017.7 1016.9 0.0
25/05:00pm 17.5 10.6 4.8 43 6.1 S 30 39 16 21 1017.5 1016.7 0.0
25/04:30pm 18.4 11.5 4.6 40 6.7 SSW 30 39 16 21 1017.2 1016.4 0.0
25/04:00pm 17.9 10.4 4.5 41 6.5 SSW 33 50 18 27 1016.9 1016.1 0.0
25/03:30pm 18.0 10.0 3.9 39 6.7 SSW 35 48 19 26 1016.6 1015.8 0.0
25/03:00pm 18.5 9.3 3.6 37 7.1 SW 41 52 22 28 1016.1 1015.4 0.0
25/02:38pm 18.8 10.5 4.2 38 7.0 SSW 37 56 20 30 1015.9 1015.1 0.0
25/02:30pm 18.7 10.4 4.1 38 7.0 SSW 37 52 20 28 1015.9 1015.1 0.0
25/02:00pm 17.4 8.7 4.0 41 6.4 SSW 39 57 21 31 1015.8 1015.0 0.0
25/01:45pm 18.6 10.3 4.4 39 6.9 SSW 37 56 20 30 1015.6 1014.8 0.0
25/01:30pm 17.8 8.9 5.1 43 6.2 SSW 41 54 22 29 1015.5 1014.7 0.0
25/01:18pm 18.0 9.2 5.6 44 6.1 SSW 41 59 22 32 1015.3 1014.5 0.0
25/01:00pm 17.9 8.8 5.8 45 6.0 SSW 43 57 23 31 1015.6 1014.8 0.0
25/12:43pm 18.1 9.3 5.7 44 6.1 SSW 41 63 22 34 1015.7 1014.9 0.0
25/12:30pm 17.6 8.8 5.5 45 5.9 SSW 41 54 22 29 1015.7 1014.9 0.0
25/12:00pm 17.1 8.0 5.7 47 5.6 SSW 43 57 23 31 1015.8 1015.0 0.0
25/11:30am 16.5 9.3 7.7 56 4.5 SW 35 50 19 27 1016.0 1015.3 0.0
25/11:00am 16.2 7.5 7.9 58 4.2 SW 43 56 23 30 1015.9 1015.1 0.0
25/10:30am 15.9 7.6 7.9 59 4.1 SW 41 54 22 29 1015.4 1014.6 0.0
25/10:16am 14.8 5.8 7.4 61 3.7 SW 44 63 24 34 1015.0 1014.2 0.0
25/10:00am 14.3 6.0 7.6 64 3.4 WSW 41 56 22 30 1015.0 1014.2 0.0
25/09:30am 13.5 4.7 7.9 69 2.8 WSW 44 59 24 32 1014.8 1014.0 0.0
25/09:00am 12.7 3.8 7.6 71 2.5 WSW 44 63 24 34 1014.5 1013.7 0.0
25/08:30am 11.4 2.5 7.5 77 1.9 WSW 44 63 24 34 1014.5 1013.7 0.0
25/08:00am 11.0 2.1 6.9 76 2.0 WSW 43 65 23 35 1014.1 1013.3 0.0
25/07:46am 10.9 1.4 6.6 75 2.1 WSW 46 67 25 36 1013.9 1013.1 0.0
25/07:30am 10.7 1.2 6.5 75 2.0 WSW 46 63 25 34 1013.7 1012.9 0.0
25/07:16am 10.5 1.3 6.3 75 2.0 WSW 44 63 24 34 1013.6 1012.8 0.0
25/07:00am 10.7 1.2 6.5 75 2.0 WSW 46 61 25 33 1013.5 1012.7 0.0
25/06:30am 10.5 1.4 6.1 74 2.1 WSW 43 61 23 33 1013.4 1012.6 0.0
25/06:00am 10.4 1.1 6.0 74 2.1 WSW 44 63 24 34 1013.2 1012.4 0.0
25/05:59am 10.4 1.1 6.0 74 2.1 WSW 44 63 24 34 1013.2 1012.4 0.0
25/05:30am 10.4 1.3 5.8 73 2.2 WSW 43 59 23 32 1013.1 1012.3 0.0
25/05:00am 10.4 1.6 5.6 72 2.2 WSW 41 52 22 28 1013.2 1012.4 0.0
25/04:30am 10.6 2.5 5.4 70 2.4 WSW 37 57 20 31 1013.3 1012.5 0.0
25/04:27am 10.7 3.0 5.5 70 2.4 WSW 35 57 19 31 1013.2 1012.4 0.0
25/04:00am 10.7 2.6 5.3 69 2.5 WSW 37 50 20 27 1013.4 1012.6 0.0
25/03:46am 10.7 2.2 5.3 69 2.5 WSW 39 57 21 31 1013.4 1012.6 0.0
25/03:30am 10.6 1.7 5.2 69 2.5 WSW 41 56 22 30 1013.3 1012.5 0.0
25/03:03am 10.7 2.2 5.0 68 2.6 WSW 39 57 21 31 1013.3 1012.5 0.0
25/03:00am 10.6 2.4 4.9 68 2.6 WSW 37 52 20 28 1013.4 1012.6 0.0
25/02:30am 10.7 1.4 4.8 67 2.7 WSW 43 57 23 31 1013.4 1012.6 0.0
25/02:14am 10.6 2.4 4.7 67 2.7 WSW 37 56 20 30 1013.6 1012.8 0.0
25/02:00am 10.7 1.7 4.6 66 2.8 WSW 41 57 22 31 1013.6 1012.8 0.0
25/01:30am 11.0 2.4 4.7 65 2.9 WSW 39 57 21 31 1013.7 1012.9 0.0
25/01:29am 11.0 2.4 4.7 65 2.9 WSW 39 57 21 31 1013.8 1013.0 0.0
25/01:00am 11.0 3.7 4.5 64 3.0 WSW 32 44 17 24 1014.1 1013.3 0.0
25/12:30am 11.1 4.6 4.6 64 3.0 WSW 28 46 15 25 1014.3 1013.5 0.0
25/12:11am 11.3 4.0 4.5 63 3.1 WSW 32 50 17 27 1014.5 1013.7 0.0
25/12:00am 11.4 4.5 4.6 63 3.1 WSW 30 43 16 23 1014.4 1013.6 0.0
 
Date/Time
CST
Temp
°C
App
Temp
°C
Dew
Point
Rel
Hum
%
Delta-T
°C
Wind Press
QNH
hPa
Press
MSL
hPa
Rain
since 9 am
mm
Dir
 
Spd
km/h
Gust
km/h
Spd
kts
Gust
kts
24/11:30pm 11.6 4.3 4.6 62 3.2 WSW 32 44 17 24 1014.6 1013.8 0.0
24/11:14pm 11.9 4.6 4.6 61 3.4 WSW 32 50 17 27 1014.7 1013.9 0.0
24/11:00pm 12.0 4.5 4.5 60 3.5 WSW 33 50 18 27 1014.6 1013.8 0.0
24/10:30pm 12.4 4.1 4.1 57 3.8 WSW 37 52 20 28 1014.6 1013.8 0.0
24/10:00pm 12.8 4.0 3.5 53 4.2 WSW 39 57 21 31 1014.6 1013.8 0.0
24/09:55pm 12.9 4.0 3.3 52 4.3 WSW 39 57 21 31 1014.5 1013.7 0.0
24/09:30pm 13.4 4.9 3.2 50 4.6 WSW 37 48 20 26 1014.3 1013.5 0.0
24/09:04pm 14.1 6.1 3.6 49 4.8 SW 35 56 19 30 1014.3 1013.5 0.0
24/09:00pm 14.2 6.6 3.7 49 4.8 SW 33 46 18 25 1014.4 1013.6 0.0
24/08:39pm 14.6 7.9 3.4 47 5.1 WSW 28 46 15 25 1014.0 1013.2 0.0
24/08:30pm 14.6 8.2 3.1 46 5.2 WSW 26 35 14 19 1014.1 1013.3 0.0
24/08:00pm 14.6 6.8 2.8 45 5.4 WSW 33 44 18 24 1014.0 1013.2 0.0
24/07:30pm 14.9 7.8 3.4 46 5.3 SW 30 41 16 22 1013.7 1012.9 0.0
24/07:00pm 15.4 7.9 3.2 44 5.6 SW 32 44 17 24 1013.5 1012.7 0.0
24/06:30pm 16.0 8.5 3.4 43 5.9 WSW 32 46 17 25 1013.1 1012.3 0.0
24/06:15pm 16.2 9.3 4.6 46 5.5 SW 30 48 16 26 1012.8 1012.0 0.0
24/06:00pm 16.3 9.0 5.6 49 5.2 WSW 33 50 18 27 1012.6 1011.7 0.0
24/05:30pm 16.6 9.8 7.0 53 4.8 WSW 32 44 17 24 1012.2 1011.4 0.0
24/05:00pm 16.5 9.4 8.2 58 4.3 SW 35 46 19 25 1012.0 1011.2 0.0
24/04:30pm 17.2 10.6 8.6 57 4.5 SW 33 41 18 22 1011.9 1011.1 0.0
24/04:00pm 17.8 11.5 9.7 59 4.3 SW 33 44 18 24 1011.9 1011.1 0.0
24/03:30pm 19.1 11.5 9.0 52 5.4 SW 39 54 21 29 1011.2 1010.4 0.0
24/03:11pm 20.4 14.8 8.7 47 6.2 WSW 28 48 15 26 1011.1 1010.3 0.0
24/03:00pm 19.4 14.0 8.1 48 5.9 WSW 26 35 14 19 1011.1 1010.3 0.0
24/02:30pm 19.8 13.8 6.9 43 6.6 W 28 39 15 21 1011.0 1010.2 0.0
24/02:00pm 20.3 13.1 5.9 39 7.3 SW 33 50 18 27 1011.2 1010.4 0.0
24/01:54pm 20.7 13.7 5.9 38 7.5 WSW 32 50 17 27 1011.1 1010.3 0.0
24/01:30pm 19.8 13.1 7.2 44 6.5 SW 32 43 17 23 1011.4 1010.6 0.0
24/01:00pm 20.7 14.8 7.7 43 6.8 WSW 28 37 15 20 1011.8 1011.0 0.0
24/12:30pm 20.2 14.2 7.2 43 6.7 WSW 28 43 15 23 1012.1 1011.3 0.0
24/12:00pm 19.4 15.2 8.1 48 5.9 WSW 20 30 11 16 1012.5 1011.6 0.0
24/11:30am 18.9 14.0 8.3 50 5.5 WSW 24 33 13 18 1013.0 1012.2 0.0
24/11:00am 18.1 13.2 8.4 53 5.1 SW 24 35 13 19 1013.3 1012.5 0.0
24/10:30am 17.9 13.8 8.5 54 4.9 WSW 20 30 11 16 1013.5 1012.7 0.0
24/10:00am 17.2 13.0 8.1 55 4.7 SW 20 32 11 17 1013.5 1012.7 0.0
24/09:30am 17.1 11.8 8.3 56 4.6 WSW 26 33 14 18 1013.8 1013.0 0.0
24/09:00am 16.2 13.4 8.7 61 3.9 WSW 13 20 7 11 1013.9 1013.1 0.0
24/08:30am 15.2 13.8 8.9 66 3.3 S 6 11 3 6 1013.5 1012.7 0.0
24/08:00am 14.3 14.1 8.9 70 2.8 CALM 0 4 0 2 1013.4 1012.6 0.0
24/07:30am 12.8 12.5 8.7 76 2.1 CALM 0 4 0 2 1013.2 1012.4 0.0
24/07:00am 12.1 9.7 8.6 79 1.8 S 11 11 6 6 1013.0 1012.2 0.0
24/06:30am 12.0 10.2 8.1 77 1.9 S 7 9 4 5 1013.1 1012.3 0.0
24/06:00am 12.0 9.9 8.1 77 1.9 SSW 9 11 5 6 1013.0 1012.2 0.0
24/05:30am 12.3 10.5 7.8 74 2.2 SSE 7 9 4 5 1012.8 1012.0 0.0
24/05:00am 13.1 10.6 8.0 71 2.6 SSW 11 11 6 6 1012.6 1011.7 0.0
24/04:30am 13.7 10.7 7.9 68 2.9 SSW 13 15 7 8 1012.5 1011.6 0.0
24/04:00am 14.2 12.0 7.9 66 3.2 SSW 9 13 5 7 1012.2 1011.4 0.0
24/03:30am 15.1 13.9 7.9 62 3.6 SE 4 9 2 5 1012.5 1011.6 0.0
24/03:00am 15.2 14.4 8.2 63 3.6 SSE 2 7 1 4 1012.6 1011.7 0.0
24/02:30am 15.4 14.7 8.4 63 3.6 S 2 7 1 4 1012.8 1012.0 0.0
24/02:00am 15.0 13.0 8.7 66 3.2 SSW 9 9 5 5 1013.0 1012.2 0.0
24/01:30am 15.0 13.4 8.7 66 3.2 SSW 7 9 4 5 1013.1 1012.3 0.0
24/01:00am 15.5 13.1 8.7 64 3.5 SSW 11 11 6 6 1013.2 1012.4 0.0
24/12:30am 15.9 13.9 8.6 62 3.8 SSW 9 11 5 6 1013.4 1012.6 0.0
24/12:00am 16.5 13.7 8.7 60 4.0 SSW 13 17 7 9 1013.7 1012.9 0.0
 
Date/Time
CST
Temp
°C
App
Temp
°C
Dew
Point
Rel
Hum
%
Delta-T
°C
Wind Press
QNH
hPa
Press
MSL
hPa
Rain
since 9 am
mm
Dir
 
Spd
km/h
Gust
km/h
Spd
kts
Gust
kts
23/11:30pm 16.7 14.4 8.9 60 4.1 SSW 11 15 6 8 1014.0 1013.2 0.0
23/11:00pm 17.1 14.7 8.8 58 4.3 SSW 11 13 6 7 1014.2 1013.4 0.0
23/10:30pm 17.4 14.5 8.3 55 4.7 SSW 13 17 7 9 1014.5 1013.7 0.0
23/10:00pm 17.4 14.7 7.5 52 5.0 SSW 11 15 6 8 1014.7 1013.9 0.0
23/09:30pm 17.1 14.8 7.5 53 4.9 SW 9 11 5 6 1015.0 1014.2 0.0
23/09:00pm 17.3 15.4 7.6 53 5.0 SSW 7 7 4 4 1015.0 1014.2 0.0
23/08:30pm 17.4 15.1 7.5 52 5.0 SSW 9 9 5 5 1015.0 1014.2 0.0
23/08:00pm 17.9 15.5 7.0 49 5.5 SSW 9 11 5 6 1015.1 1014.3 0.0
23/07:30pm 18.3 15.5 6.8 47 5.8 S 11 15 6 8 1014.9 1014.1 0.0
23/07:00pm 18.3 15.4 6.5 46 5.9 SSW 11 13 6 7 1015.0 1014.2 0.0
23/06:30pm 19.0 16.0 6.1 43 6.5 SW 11 15 6 8 1014.9 1014.1 0.0
23/06:00pm 19.4 16.0 5.8 41 6.8 SW 13 19 7 10 1014.8 1014.0 0.0
23/05:30pm 20.1 15.9 5.7 39 7.2 WSW 17 20 9 11 1014.6 1013.8 0.0
23/05:00pm 20.6 16.3 5.4 37 7.6 WSW 17 20 9 11 1014.6 1013.8 0.0
23/04:30pm 21.0 17.1 5.4 36 7.8 WSW 15 28 8 15 1014.3 1013.5 0.0
23/04:00pm 21.8 17.5 5.3 34 8.3 WSW 17 22 9 12 1014.4 1013.6 0.0
23/03:30pm 22.3 18.5 5.7 34 8.4 WSW 15 20 8 11 1014.6 1013.8 0.0
23/03:00pm 22.3 17.8 6.1 35 8.3 W 19 32 10 17 1014.9 1014.1 0.0
23/02:30pm 22.1 17.3 5.5 34 8.4 W 20 28 11 15 1015.2 1014.4 0.0
23/02:00pm 22.5 19.2 6.3 35 8.3 SW 13 22 7 12 1015.3 1014.5 0.0
23/01:30pm 22.3 18.9 6.1 35 8.3 SW 13 20 7 11 1015.4 1014.6 0.0
23/01:00pm 22.1 18.4 6.3 36 8.1 WSW 15 33 8 18 1016.0 1015.3 0.0
23/12:30pm 21.0 17.7 6.2 38 7.5 W 13 24 7 13 1016.9 1016.1 0.0
23/12:00pm 20.6 16.9 6.2 39 7.3 W 15 26 8 14 1017.6 1016.8 0.0
23/11:30am 19.9 16.4 5.5 39 7.2 SW 13 20 7 11 1018.3 1017.5 0.0
23/11:00am 19.5 16.8 5.6 40 6.9 NW 9 17 5 9 1018.7 1017.9 0.0
23/10:30am 18.5 16.3 6.4 45 6.1 NW 7 13 4 7 1018.9 1018.1 0.0
23/10:00am 17.6 16.5 6.8 49 5.4 ENE 2 9 1 5 1018.8 1018.0 0.0
23/09:30am 16.6 14.6 7.3 54 4.7 ENE 7 11 4 6 1018.9 1018.1 0.0
23/09:00am 15.6 13.9 7.6 59 4.0 ESE 6 9 3 5 1018.9 1018.1 0.0
23/08:30am 14.5 13.4 8.5 67 3.1 ESE 4 9 2 5 1018.9 1018.1 0.0
23/08:00am 13.5 12.0 8.4 71 2.6 ESE 6 11 3 6 1018.9 1018.1 0.0
23/07:30am 12.5 11.0 8.4 76 2.1 SW 6 9 3 5 1018.9 1018.1 0.0
23/07:00am 12.1 10.4 8.2 77 1.9 SE 7 9 4 5 1018.6 1017.8 0.0
23/06:30am 12.1 9.9 7.8 75 2.1 SE 9 11 5 6 1018.6 1017.8 0.0
23/06:00am 11.6 11.2 8.1 79 1.7 CALM 0 0 0 0 1018.8 1018.0 0.0
23/05:30am 11.5 9.7 7.8 78 1.8 SE 7 9 4 5 1018.6 1017.8 0.0

Other Formats:

Comma delimited format used in spreadsheet applications
http://www.bom.gov.au/fwo/IDS60801/IDS60801.94674.axf

JavaScript Object Notation format (JSON) in row-major order
http://www.bom.gov.au/fwo/IDS60801/IDS60801.94674.json